sensor_id;sensor_type;location;lat;lon;timestamp;pressure;altitude;pressure_sealevel;temperature;humidity
18509;BME280;9383;50.928;12.116;2022-12-18T00:01:26;100334.09;;;-11.25;98.17
18509;BME280;9383;50.928;12.116;2022-12-18T00:04:22;100333.88;;;-11.28;97.68
18509;BME280;9383;50.928;12.116;2022-12-18T00:07:24;100330.19;;;-11.32;97.30
18509;BME280;9383;50.928;12.116;2022-12-18T00:09:55;100329.19;;;-11.34;96.72
18509;BME280;9383;50.928;12.116;2022-12-18T00:12:47;100333.16;;;-11.38;96.29
18509;BME280;9383;50.928;12.116;2022-12-18T00:15:50;100325.91;;;-11.43;96.24
18509;BME280;9383;50.928;12.116;2022-12-18T00:18:56;100332.38;;;-11.49;96.02
18509;BME280;9383;50.928;12.116;2022-12-18T00:21:42;100326.13;;;-11.52;94.77
18509;BME280;9383;50.928;12.116;2022-12-18T00:24:27;100336.88;;;-11.56;95.02
18509;BME280;9383;50.928;12.116;2022-12-18T00:27:12;100331.31;;;-11.63;94.79
18509;BME280;9383;50.928;12.116;2022-12-18T00:29:57;100337.06;;;-11.65;94.07
18509;BME280;9383;50.928;12.116;2022-12-18T00:32:42;100340.06;;;-11.71;93.89
18509;BME280;9383;50.928;12.116;2022-12-18T00:35:40;100338.81;;;-11.76;92.96
18509;BME280;9383;50.928;12.116;2022-12-18T00:38:25;100343.56;;;-11.81;93.32
18509;BME280;9383;50.928;12.116;2022-12-18T00:41:18;100342.34;;;-11.86;92.97
18509;BME280;9383;50.928;12.116;2022-12-18T00:44:22;100333.41;;;-11.91;92.07
18509;BME280;9383;50.928;12.116;2022-12-18T00:47:07;100342.50;;;-11.95;92.27
18509;BME280;9383;50.928;12.116;2022-12-18T00:49:55;100349.84;;;-11.99;92.05
18509;BME280;9383;50.928;12.116;2022-12-18T00:52:53;100356.41;;;-12.03;91.99
18509;BME280;9383;50.928;12.116;2022-12-18T00:55:41;100349.25;;;-12.07;90.99
18509;BME280;9383;50.928;12.116;2022-12-18T00:58:37;100350.56;;;-12.12;91.09
18509;BME280;9383;50.928;12.116;2022-12-18T01:01:22;100346.00;;;-12.17;90.49
18509;BME280;9383;50.928;12.116;2022-12-18T01:04:14;100348.97;;;-12.22;90.39
18509;BME280;9383;50.928;12.116;2022-12-18T01:07:16;100363.16;;;-12.26;90.04
18509;BME280;9383;50.928;12.116;2022-12-18T01:10:01;100365.34;;;-12.31;90.15
18509;BME280;9383;50.928;12.116;2022-12-18T01:12:46;100358.31;;;-12.33;89.35
18509;BME280;9383;50.928;12.116;2022-12-18T01:15:49;100354.66;;;-12.37;89.59
18509;BME280;9383;50.928;12.116;2022-12-18T01:18:45;100350.03;;;-12.41;89.59
18509;BME280;9383;50.928;12.116;2022-12-18T01:21:44;100353.13;;;-12.45;89.65
18509;BME280;9383;50.928;12.116;2022-12-18T01:24:29;100358.00;;;-12.48;88.92
18509;BME280;9383;50.928;12.116;2022-12-18T01:27:14;100363.50;;;-12.54;88.91
18509;BME280;9383;50.928;12.116;2022-12-18T01:30:06;100376.06;;;-12.57;89.24
18509;BME280;9383;50.928;12.116;2022-12-18T01:32:51;100385.22;;;-12.59;88.54
18509;BME280;9383;50.928;12.116;2022-12-18T01:35:47;100402.88;;;-12.62;88.75
18509;BME280;9383;50.928;12.116;2022-12-18T01:38:35;100399.16;;;-12.66;89.54
18509;BME280;9383;50.928;12.116;2022-12-18T01:41:25;100407.59;;;-12.67;88.58
18509;BME280;9383;50.928;12.116;2022-12-18T01:47:50;100407.88;;;-12.74;88.65
18509;BME280;9383;50.928;12.116;2022-12-18T01:50:55;100410.94;;;-12.78;88.49
18509;BME280;9383;50.928;12.116;2022-12-18T01:54:00;100416.81;;;-12.79;88.25
18509;BME280;9383;50.928;12.116;2022-12-18T01:56:46;100413.25;;;-12.81;88.26
18509;BME280;9383;50.928;12.116;2022-12-18T01:59:44;100421.66;;;-12.82;88.95
18509;BME280;9383;50.928;12.116;2022-12-18T02:02:31;100409.66;;;-12.83;88.92
18509;BME280;9383;50.928;12.116;2022-12-18T02:05:46;100396.13;;;-12.82;89.18
18509;BME280;9383;50.928;12.116;2022-12-18T02:08:58;100405.44;;;-12.83;89.41
18509;BME280;9383;50.928;12.116;2022-12-18T02:12:21;100413.00;;;-12.84;89.31
18509;BME280;9383;50.928;12.116;2022-12-18T02:15:18;100416.31;;;-12.86;88.67
18509;BME280;9383;50.928;12.116;2022-12-18T02:18:14;100407.66;;;-12.88;88.81
18509;BME280;9383;50.928;12.116;2022-12-18T02:24:30;100409.16;;;-12.90;88.76
18509;BME280;9383;50.928;12.116;2022-12-18T02:27:19;100403.94;;;-12.91;88.64
18509;BME280;9383;50.928;12.116;2022-12-18T02:30:22;100403.81;;;-12.93;88.88
18509;BME280;9383;50.928;12.116;2022-12-18T02:33:22;100402.94;;;-12.93;88.63
18509;BME280;9383;50.928;12.116;2022-12-18T02:36:11;100405.34;;;-12.95;88.96
18509;BME280;9383;50.928;12.116;2022-12-18T02:38:59;100394.13;;;-12.97;88.76
18509;BME280;9383;50.928;12.116;2022-12-18T02:41:45;100402.41;;;-13.00;88.29
18509;BME280;9383;50.928;12.116;2022-12-18T02:44:31;100399.75;;;-13.01;88.40
18509;BME280;9383;50.928;12.116;2022-12-18T02:47:20;100405.47;;;-13.04;88.36
18509;BME280;9383;50.928;12.116;2022-12-18T02:53:28;100400.75;;;-13.09;88.11
18509;BME280;9383;50.928;12.116;2022-12-18T02:56:51;100396.19;;;-13.13;87.92
18509;BME280;9383;50.928;12.116;2022-12-18T02:59:50;100402.78;;;-13.16;87.86
18509;BME280;9383;50.928;12.116;2022-12-18T03:03:40;100398.97;;;-13.21;87.20
18509;BME280;9383;50.928;12.116;2022-12-18T03:06:27;100390.28;;;-13.23;87.50
18509;BME280;9383;50.928;12.116;2022-12-18T03:09:32;100397.69;;;-13.26;87.36
18509;BME280;9383;50.928;12.116;2022-12-18T03:12:28;100397.56;;;-13.27;87.32
18509;BME280;9383;50.928;12.116;2022-12-18T03:15:24;100393.09;;;-13.30;87.25
18509;BME280;9383;50.928;12.116;2022-12-18T03:18:22;100399.59;;;-13.34;87.04
18509;BME280;9383;50.928;12.116;2022-12-18T03:21:28;100400.25;;;-13.36;87.30
18509;BME280;9383;50.928;12.116;2022-12-18T03:24:17;100394.75;;;-13.41;87.43
18509;BME280;9383;50.928;12.116;2022-12-18T03:27:06;100398.94;;;-13.42;87.22
18509;BME280;9383;50.928;12.116;2022-12-18T03:30:01;100400.41;;;-13.45;86.90
18509;BME280;9383;50.928;12.116;2022-12-18T03:36:35;100406.66;;;-13.52;86.77
18509;BME280;9383;50.928;12.116;2022-12-18T03:39:21;100407.28;;;-13.54;86.88
18509;BME280;9383;50.928;12.116;2022-12-18T03:42:32;100412.13;;;-13.58;86.64
18509;BME280;9383;50.928;12.116;2022-12-18T03:45:42;100416.06;;;-13.61;86.78
18509;BME280;9383;50.928;12.116;2022-12-18T03:48:53;100410.81;;;-13.63;86.60
18509;BME280;9383;50.928;12.116;2022-12-18T03:52:05;100412.34;;;-13.65;86.74
18509;BME280;9383;50.928;12.116;2022-12-18T03:54:54;100418.06;;;-13.67;86.87
18509;BME280;9383;50.928;12.116;2022-12-18T03:57:48;100417.81;;;-13.71;86.95
18509;BME280;9383;50.928;12.116;2022-12-18T04:00:35;100420.97;;;-13.73;87.13
18509;BME280;9383;50.928;12.116;2022-12-18T04:03:24;100414.88;;;-13.75;86.77
18509;BME280;9383;50.928;12.116;2022-12-18T04:06:28;100427.50;;;-13.77;86.87
18509;BME280;9383;50.928;12.116;2022-12-18T04:09:14;100428.13;;;-13.79;87.12
18509;BME280;9383;50.928;12.116;2022-12-18T04:11:59;100430.53;;;-13.81;87.06
18509;BME280;9383;50.928;12.116;2022-12-18T04:15:00;100432.97;;;-13.82;86.78
18509;BME280;9383;50.928;12.116;2022-12-18T04:17:49;100422.47;;;-13.86;86.81
18509;BME280;9383;50.928;12.116;2022-12-18T04:20:51;100435.88;;;-13.88;86.51
18509;BME280;9383;50.928;12.116;2022-12-18T04:23:37;100429.72;;;-13.90;86.66
18509;BME280;9383;50.928;12.116;2022-12-18T04:26:22;100426.91;;;-13.93;86.64
18509;BME280;9383;50.928;12.116;2022-12-18T04:29:09;100419.16;;;-13.95;86.38
18509;BME280;9383;50.928;12.116;2022-12-18T04:32:11;100416.31;;;-13.98;86.38
18509;BME280;9383;50.928;12.116;2022-12-18T04:34:55;100415.19;;;-14.02;86.05
18509;BME280;9383;50.928;12.116;2022-12-18T04:37:54;100416.56;;;-14.05;86.19
18509;BME280;9383;50.928;12.116;2022-12-18T04:40:40;100407.91;;;-14.07;86.56
18509;BME280;9383;50.928;12.116;2022-12-18T04:43:44;100402.41;;;-14.12;86.14
18509;BME280;9383;50.928;12.116;2022-12-18T04:46:49;100407.25;;;-14.15;86.09
18509;BME280;9383;50.928;12.116;2022-12-18T04:49:31;100415.50;;;-14.18;86.14
18509;BME280;9383;50.928;12.116;2022-12-18T04:52:16;100409.38;;;-14.20;86.17
18509;BME280;9383;50.928;12.116;2022-12-18T04:55:00;100412.53;;;-14.22;85.68
18509;BME280;9383;50.928;12.116;2022-12-18T04:57:45;100416.63;;;-14.24;85.64
18509;BME280;9383;50.928;12.116;2022-12-18T05:00:41;100424.00;;;-14.28;85.95
18509;BME280;9383;50.928;12.116;2022-12-18T05:03:28;100408.56;;;-14.29;86.14
18509;BME280;9383;50.928;12.116;2022-12-18T05:06:13;100416.81;;;-14.32;85.68
18509;BME280;9383;50.928;12.116;2022-12-18T05:09:00;100419.25;;;-14.33;85.53
18509;BME280;9383;50.928;12.116;2022-12-18T05:11:31;100426.00;;;-14.34;85.89
18509;BME280;9383;50.928;12.116;2022-12-18T05:14:29;100424.81;;;-14.37;85.66
18509;BME280;9383;50.928;12.116;2022-12-18T05:17:27;100425.47;;;-14.40;85.42
18509;BME280;9383;50.928;12.116;2022-12-18T05:20:12;100431.16;;;-14.43;85.55
18509;BME280;9383;50.928;12.116;2022-12-18T05:23:01;100432.81;;;-14.43;86.02
18509;BME280;9383;50.928;12.116;2022-12-18T05:25:55;100433.56;;;-14.44;86.10
18509;BME280;9383;50.928;12.116;2022-12-18T05:28:40;100435.84;;;-14.47;85.96
18509;BME280;9383;50.928;12.116;2022-12-18T05:31:25;100447.56;;;-14.49;85.77
18509;BME280;9383;50.928;12.116;2022-12-18T05:34:10;100443.84;;;-14.53;85.51
18509;BME280;9383;50.928;12.116;2022-12-18T05:36:54;100442.81;;;-14.55;85.73
18509;BME280;9383;50.928;12.116;2022-12-18T05:39:39;100452.84;;;-14.57;85.40
18509;BME280;9383;50.928;12.116;2022-12-18T05:42:24;100442.41;;;-14.60;85.89
18509;BME280;9383;50.928;12.116;2022-12-18T05:45:15;100449.00;;;-14.62;85.33
18509;BME280;9383;50.928;12.116;2022-12-18T05:48:00;100449.63;;;-14.64;85.62
18509;BME280;9383;50.928;12.116;2022-12-18T05:51:02;100452.06;;;-14.66;85.98
18509;BME280;9383;50.928;12.116;2022-12-18T05:53:47;100464.47;;;-14.69;85.24
18509;BME280;9383;50.928;12.116;2022-12-18T05:56:17;100472.13;;;-14.69;85.22
18509;BME280;9383;50.928;12.116;2022-12-18T05:59:02;100471.72;;;-14.74;86.19
18509;BME280;9383;50.928;12.116;2022-12-18T06:01:47;100459.00;;;-14.74;85.96
18509;BME280;9383;50.928;12.116;2022-12-18T06:04:32;100459.75;;;-14.75;86.43
18509;BME280;9383;50.928;12.116;2022-12-18T06:07:18;100466.25;;;-14.78;85.96
18509;BME280;9383;50.928;12.116;2022-12-18T06:10:03;100465.34;;;-14.79;86.47
18509;BME280;9383;50.928;12.116;2022-12-18T06:12:49;100468.66;;;-14.80;86.61
18509;BME280;9383;50.928;12.116;2022-12-18T06:15:37;100375.47;;;-15.35;86.01
18509;BME280;9383;50.928;12.116;2022-12-18T06:18:42;100473.47;;;-14.83;86.59
18509;BME280;9383;50.928;12.116;2022-12-18T06:21:27;100478.56;;;-14.83;86.72
18509;BME280;9383;50.928;12.116;2022-12-18T06:24:14;100477.50;;;-14.85;86.33
18509;BME280;9383;50.928;12.116;2022-12-18T06:26:59;100478.25;;;-14.86;86.22
18509;BME280;9383;50.928;12.116;2022-12-18T06:29:49;100479.91;;;-14.87;86.10
18509;BME280;9383;50.928;12.116;2022-12-18T06:32:28;100466.16;;;-14.89;86.56
18509;BME280;9383;50.928;12.116;2022-12-18T06:35:27;100466.91;;;-14.90;86.07
18509;BME280;9383;50.928;12.116;2022-12-18T06:38:34;100466.00;;;-14.90;86.71
18509;BME280;9383;50.928;12.116;2022-12-18T06:41:21;100472.63;;;-14.92;86.50
18509;BME280;9383;50.928;12.116;2022-12-18T06:44:06;100481.88;;;-14.93;86.29
18509;BME280;9383;50.928;12.116;2022-12-18T06:46:51;100486.97;;;-14.93;86.46
18509;BME280;9383;50.928;12.116;2022-12-18T06:49:45;100485.19;;;-14.94;86.37
18509;BME280;9383;50.928;12.116;2022-12-18T06:52:36;100479.22;;;-14.94;86.03
18509;BME280;9383;50.928;12.116;2022-12-18T06:55:23;100477.44;;;-14.95;86.00
18509;BME280;9383;50.928;12.116;2022-12-18T06:58:08;100486.84;;;-14.94;86.50
18509;BME280;9383;50.928;12.116;2022-12-18T07:01:04;100474.91;;;-14.95;86.55
18509;BME280;9383;50.928;12.116;2022-12-18T07:03:57;100478.31;;;-14.95;86.12
18509;BME280;9383;50.928;12.116;2022-12-18T07:06:45;100484.31;;;-14.94;86.77
18509;BME280;9383;50.928;12.116;2022-12-18T07:09:37;100471.59;;;-14.94;86.76
18509;BME280;9383;50.928;12.116;2022-12-18T07:12:40;100476.03;;;-14.92;87.16
18509;BME280;9383;50.928;12.116;2022-12-18T07:15:36;100472.78;;;-14.91;87.30
18509;BME280;9383;50.928;12.116;2022-12-18T07:18:05;100481.44;;;-14.89;87.33
18509;BME280;9383;50.928;12.116;2022-12-18T07:21:10;100485.75;;;-14.88;87.15
18509;BME280;9383;50.928;12.116;2022-12-18T07:32:19;100484.78;;;-14.79;87.60
18509;BME280;9383;50.928;12.116;2022-12-18T07:39:16;100500.41;;;-14.66;88.49
18509;BME280;9383;50.928;12.116;2022-12-18T07:42:01;100494.16;;;-14.50;89.14
18509;BME280;9383;50.928;12.116;2022-12-18T07:45:08;100482.91;;;-14.14;91.47
18509;BME280;9383;50.928;12.116;2022-12-18T07:47:53;100484.38;;;-13.67;93.96
18509;BME280;9383;50.928;12.116;2022-12-18T07:50:41;100492.38;;;-13.12;96.41
18509;BME280;9383;50.928;12.116;2022-12-18T07:53:36;100490.88;;;-12.48;98.53
18509;BME280;9383;50.928;12.116;2022-12-18T07:56:22;100483.25;;;-11.83;100.00
18509;BME280;9383;50.928;12.116;2022-12-18T07:59:10;100481.50;;;-11.17;100.00
18509;BME280;9383;50.928;12.116;2022-12-18T08:01:56;100476.78;;;-10.54;100.00
18509;BME280;9383;50.928;12.116;2022-12-18T08:04:58;100478.88;;;-9.89;100.00
18509;BME280;9383;50.928;12.116;2022-12-18T08:07:50;100488.72;;;-9.34;100.00
18509;BME280;9383;50.928;12.116;2022-12-18T08:10:49;100502.41;;;-8.84;100.00
18509;BME280;9383;50.928;12.116;2022-12-18T08:13:33;100514.13;;;-8.49;100.00
18509;BME280;9383;50.928;12.116;2022-12-18T08:16:21;100510.22;;;-8.17;98.51
18509;BME280;9383;50.928;12.116;2022-12-18T08:18:48;100502.34;;;-7.93;97.00
18509;BME280;9383;50.928;12.116;2022-12-18T08:21:35;100489.03;;;-7.72;94.72
18509;BME280;9383;50.928;12.116;2022-12-18T08:24:21;100500.91;;;-7.61;92.07
18509;BME280;9383;50.928;12.116;2022-12-18T08:27:06;100498.03;;;-7.52;89.83
18509;BME280;9383;50.928;12.116;2022-12-18T08:29:53;100503.69;;;-7.44;87.98
18509;BME280;9383;50.928;12.116;2022-12-18T08:32:37;100499.88;;;-7.36;86.65
18509;BME280;9383;50.928;12.116;2022-12-18T08:35:25;100507.09;;;-7.30;86.17
18509;BME280;9383;50.928;12.116;2022-12-18T08:38:10;100499.66;;;-7.26;84.81
18509;BME280;9383;50.928;12.116;2022-12-18T08:41:02;100499.34;;;-7.17;83.79
18509;BME280;9383;50.928;12.116;2022-12-18T08:43:49;100501.28;;;-6.99;83.51
18509;BME280;9383;50.928;12.116;2022-12-18T08:47:04;100495.56;;;-6.65;83.75
18509;BME280;9383;50.928;12.116;2022-12-18T08:49:52;100488.38;;;-6.26;84.87
18509;BME280;9383;50.928;12.116;2022-12-18T08:52:54;100485.72;;;-5.81;85.02
18509;BME280;9383;50.928;12.116;2022-12-18T08:55:39;100488.47;;;-5.46;84.76
18509;BME280;9383;50.928;12.116;2022-12-18T08:58:30;100488.34;;;-5.16;84.50
18509;BME280;9383;50.928;12.116;2022-12-18T09:01:32;100493.97;;;-4.91;83.43
18509;BME280;9383;50.928;12.116;2022-12-18T09:04:17;100493.78;;;-4.78;82.20
18509;BME280;9383;50.928;12.116;2022-12-18T09:07:03;100486.56;;;-4.67;81.08
18509;BME280;9383;50.928;12.116;2022-12-18T09:10:05;100480.09;;;-4.59;80.30
18509;BME280;9383;50.928;12.116;2022-12-18T09:12:50;100488.41;;;-4.48;79.83
18509;BME280;9383;50.928;12.116;2022-12-18T09:15:39;100476.91;;;-4.36;79.73
18509;BME280;9383;50.928;12.116;2022-12-18T09:18:25;100470.47;;;-4.27;80.22
18509;BME280;9383;50.928;12.116;2022-12-18T09:21:29;100476.47;;;-4.10;80.36
18509;BME280;9383;50.928;12.116;2022-12-18T09:24:21;100471.91;;;-3.97;80.76
18509;BME280;9383;50.928;12.116;2022-12-18T09:27:19;100470.50;;;-3.90;81.32
18509;BME280;9383;50.928;12.116;2022-12-18T09:30:06;100474.28;;;-3.84;82.06
18509;BME280;9383;50.928;12.116;2022-12-18T09:32:53;100472.94;;;-3.75;82.80
18509;BME280;9383;50.928;12.116;2022-12-18T09:35:38;100465.75;;;-3.63;82.84
18509;BME280;9383;50.928;12.116;2022-12-18T09:38:37;100469.97;;;-3.47;82.58
18509;BME280;9383;50.928;12.116;2022-12-18T09:41:45;100466.34;;;-3.31;82.31
18509;BME280;9383;50.928;12.116;2022-12-18T09:44:50;100457.66;;;-3.13;81.84
18509;BME280;9383;50.928;12.116;2022-12-18T09:47:38;100443.63;;;-2.97;81.07
18509;BME280;9383;50.928;12.116;2022-12-18T09:50:29;100434.69;;;-2.84;81.01
18509;BME280;9383;50.928;12.116;2022-12-18T09:53:21;100433.66;;;-2.68;81.25
18509;BME280;9383;50.928;12.116;2022-12-18T09:56:12;100427.47;;;-2.50;81.67
18509;BME280;9383;50.928;12.116;2022-12-18T09:59:02;100415.19;;;-2.33;81.98
18509;BME280;9383;50.928;12.116;2022-12-18T10:02:19;100409.84;;;-2.15;81.59
18509;BME280;9383;50.928;12.116;2022-12-18T10:05:15;100401.59;;;-2.05;81.09
18509;BME280;9383;50.928;12.116;2022-12-18T10:11:53;100397.91;;;-1.89;80.00
18509;BME280;9383;50.928;12.116;2022-12-18T10:15:06;100401.56;;;-1.84;79.05
18509;BME280;9383;50.928;12.116;2022-12-18T10:21:10;100409.00;;;-1.70;76.76
18509;BME280;9383;50.928;12.116;2022-12-18T10:26:50;100402.38;;;-1.62;75.28
18509;BME280;9383;50.928;12.116;2022-12-18T10:29:36;100399.06;;;-1.58;74.99
18509;BME280;9383;50.928;12.116;2022-12-18T10:32:28;100398.41;;;-1.52;74.38
18509;BME280;9383;50.928;12.116;2022-12-18T10:35:45;100397.75;;;-1.46;74.61
18509;BME280;9383;50.928;12.116;2022-12-18T10:38:39;100396.28;;;-1.39;74.42
18509;BME280;9383;50.928;12.116;2022-12-18T10:41:26;100401.66;;;-1.35;73.62
18509;BME280;9383;50.928;12.116;2022-12-18T10:44:14;100382.72;;;-1.31;74.09
18509;BME280;9383;50.928;12.116;2022-12-18T10:47:04;100375.06;;;-1.26;73.47
18509;BME280;9383;50.928;12.116;2022-12-18T10:53:25;100379.97;;;-1.11;74.18
18509;BME280;9383;50.928;12.116;2022-12-18T10:56:12;100363.69;;;-1.05;73.71
18509;BME280;9383;50.928;12.116;2022-12-18T10:59:10;100368.75;;;-1.08;71.01
18509;BME280;9383;50.928;12.116;2022-12-18T11:02:01;100369.31;;;-1.17;68.88
18509;BME280;9383;50.928;12.116;2022-12-18T11:04:52;100374.41;;;-1.20;67.81
18509;BME280;9383;50.928;12.116;2022-12-18T11:07:50;100376.09;;;-1.22;67.43
18509;BME280;9383;50.928;12.116;2022-12-18T11:10:49;100387.53;;;-1.17;67.77
18509;BME280;9383;50.928;12.116;2022-12-18T11:13:34;100386.16;;;-1.07;68.32
18509;BME280;9383;50.928;12.116;2022-12-18T11:16:33;100377.81;;;-0.97;68.20
18509;BME280;9383;50.928;12.116;2022-12-18T11:19:37;100377.78;;;-0.98;67.17
18509;BME280;9383;50.928;12.116;2022-12-18T11:22:36;100385.38;;;-1.05;65.33
18509;BME280;9383;50.928;12.116;2022-12-18T11:25:22;100385.88;;;-1.15;65.60
18509;BME280;9383;50.928;12.116;2022-12-18T11:31:32;100399.19;;;-1.07;65.31
18509;BME280;9383;50.928;12.116;2022-12-18T11:34:25;100395.94;;;-1.00;65.43
18509;BME280;9383;50.928;12.116;2022-12-18T11:37:13;100386.56;;;-0.95;65.70
18509;BME280;9383;50.928;12.116;2022-12-18T11:40:23;100379.09;;;-0.86;65.91
18509;BME280;9383;50.928;12.116;2022-12-18T11:43:29;100380.41;;;-0.73;66.27
18509;BME280;9383;50.928;12.116;2022-12-18T11:46:32;100376.56;;;-0.58;66.92
18509;BME280;9383;50.928;12.116;2022-12-18T11:49:35;100370.84;;;-0.46;65.45
18509;BME280;9383;50.928;12.116;2022-12-18T11:52:26;100379.06;;;-0.34;65.70
18509;BME280;9383;50.928;12.116;2022-12-18T11:55:14;100379.53;;;-0.20;65.71
18509;BME280;9383;50.928;12.116;2022-12-18T12:10:51;100347.06;;;0.58;66.43
18509;BME280;9383;50.928;12.116;2022-12-18T12:16:57;100341.22;;;0.98;66.92
18509;BME280;9383;50.928;12.116;2022-12-18T12:20:00;100334.78;;;1.19;67.42
18509;BME280;9383;50.928;12.116;2022-12-18T12:26:10;100325.94;;;1.49;64.58
18509;BME280;9383;50.928;12.116;2022-12-18T12:29:24;100322.81;;;1.64;63.87
18509;BME280;9383;50.928;12.116;2022-12-18T12:32:29;100321.34;;;1.76;63.16
18509;BME280;9383;50.928;12.116;2022-12-18T12:35:25;100310.31;;;1.89;63.48
18509;BME280;9383;50.928;12.116;2022-12-18T12:38:41;100312.94;;;1.89;60.62
18509;BME280;9383;50.928;12.116;2022-12-18T12:41:33;100310.50;;;1.97;61.04
18509;BME280;9383;50.928;12.116;2022-12-18T12:44:55;100313.28;;;2.05;61.41
18509;BME280;9383;50.928;12.116;2022-12-18T12:47:49;100310.81;;;2.13;61.06
18509;BME280;9383;50.928;12.116;2022-12-18T12:50:36;100310.91;;;2.16;60.54
18509;BME280;9383;50.928;12.116;2022-12-18T12:53:33;100243.78;;;1.76;60.07
18509;BME280;9383;50.928;12.116;2022-12-18T12:56:57;100315.41;;;2.21;59.65
18509;BME280;9383;50.928;12.116;2022-12-18T13:03:18;100314.44;;;2.18;58.82
18509;BME280;9383;50.928;12.116;2022-12-18T13:09:18;100314.28;;;2.10;58.78
18509;BME280;9383;50.928;12.116;2022-12-18T13:12:10;100308.16;;;2.09;59.34
18509;BME280;9383;50.928;12.116;2022-12-18T13:23:55;100299.91;;;2.34;59.43
18509;BME280;9383;50.928;12.116;2022-12-18T13:26:41;100295.63;;;2.36;58.64
18509;BME280;9383;50.928;12.116;2022-12-18T13:29:43;100288.63;;;2.36;58.94
18509;BME280;9383;50.928;12.116;2022-12-18T13:44:50;100292.81;;;1.87;55.93
18509;BME280;9383;50.928;12.116;2022-12-18T13:47:37;100285.44;;;1.67;55.38
18509;BME280;9383;50.928;12.116;2022-12-18T13:50:25;100280.59;;;1.46;55.23
18509;BME280;9383;50.928;12.116;2022-12-18T13:53:25;100281.69;;;1.20;55.42
18509;BME280;9383;50.928;12.116;2022-12-18T13:56:16;100203.31;;;0.48;55.19
18509;BME280;9383;50.928;12.116;2022-12-18T13:59:22;100270.78;;;0.68;55.92
18509;BME280;9383;50.928;12.116;2022-12-18T14:02:28;100274.53;;;0.46;55.80
18509;BME280;9383;50.928;12.116;2022-12-18T14:05:31;100275.75;;;0.26;56.20
18509;BME280;9383;50.928;12.116;2022-12-18T14:08:38;100279.53;;;0.07;56.40
18509;BME280;9383;50.928;12.116;2022-12-18T14:11:30;100271.19;;;-0.11;56.30
18509;BME280;9383;50.928;12.116;2022-12-18T14:14:20;100275.69;;;-0.35;56.13
18509;BME280;9383;50.928;12.116;2022-12-18T14:17:10;100276.81;;;-0.54;56.29
18509;BME280;9383;50.928;12.116;2022-12-18T14:19:56;100287.50;;;-0.74;56.94
18509;BME280;9383;50.928;12.116;2022-12-18T14:22:58;100285.09;;;-0.93;57.40
18509;BME280;9383;50.928;12.116;2022-12-18T14:29:43;100291.56;;;-1.34;58.37
18509;BME280;9383;50.928;12.116;2022-12-18T14:32:30;100285.84;;;-1.48;58.51
18509;BME280;9383;50.928;12.116;2022-12-18T14:35:38;100292.16;;;-1.65;58.38
18509;BME280;9383;50.928;12.116;2022-12-18T14:38:36;100288.13;;;-1.81;58.67
18509;BME280;9383;50.928;12.116;2022-12-18T14:41:32;100291.00;;;-1.96;59.03
18509;BME280;9383;50.928;12.116;2022-12-18T14:44:34;100299.06;;;-2.13;58.94
18509;BME280;9383;50.928;12.116;2022-12-18T14:47:30;100299.22;;;-2.31;59.08
18509;BME280;9383;50.928;12.116;2022-12-18T14:50:35;100304.59;;;-2.49;59.08
18509;BME280;9383;50.928;12.116;2022-12-18T14:53:34;100289.22;;;-2.66;59.30
18509;BME280;9383;50.928;12.116;2022-12-18T14:56:42;100291.00;;;-2.86;59.40
18509;BME280;9383;50.928;12.116;2022-12-18T14:59:29;100292.16;;;-3.01;59.49
18509;BME280;9383;50.928;12.116;2022-12-18T15:02:29;100284.47;;;-3.19;59.75
18509;BME280;9383;50.928;12.116;2022-12-18T15:05:30;100285.53;;;-3.35;60.31
18509;BME280;9383;50.928;12.116;2022-12-18T15:08:35;100283.09;;;-3.51;60.17
18509;BME280;9383;50.928;12.116;2022-12-18T15:11:31;100285.06;;;-3.65;60.59
18509;BME280;9383;50.928;12.116;2022-12-18T15:17:33;100298.13;;;-4.02;61.12
18509;BME280;9383;50.928;12.116;2022-12-18T15:20:18;100310.47;;;-4.16;61.27
18509;BME280;9383;50.928;12.116;2022-12-18T15:23:32;100314.16;;;-4.29;61.75
18509;BME280;9383;50.928;12.116;2022-12-18T15:26:21;100306.63;;;-4.42;62.41
18509;BME280;9383;50.928;12.116;2022-12-18T15:29:19;100299.19;;;-4.54;62.87
18509;BME280;9383;50.928;12.116;2022-12-18T15:32:18;100295.25;;;-4.64;62.98
18509;BME280;9383;50.928;12.116;2022-12-18T15:35:16;100293.09;;;-4.73;63.77
18509;BME280;9383;50.928;12.116;2022-12-18T15:38:03;100210.38;;;-5.26;63.49
18509;BME280;9383;50.928;12.116;2022-12-18T15:40:48;100283.69;;;-4.89;63.74
18509;BME280;9383;50.928;12.116;2022-12-18T15:43:38;100297.06;;;-4.98;64.05
18509;BME280;9383;50.928;12.116;2022-12-18T15:46:24;100292.31;;;-5.06;64.08
18509;BME280;9383;50.928;12.116;2022-12-18T15:49:09;100293.56;;;-5.16;64.48
18509;BME280;9383;50.928;12.116;2022-12-18T15:51:59;100296.66;;;-5.24;65.31
18509;BME280;9383;50.928;12.116;2022-12-18T15:54:44;100297.94;;;-5.32;65.84
18509;BME280;9383;50.928;12.116;2022-12-18T15:57:57;100298.34;;;-5.41;65.64
18509;BME280;9383;50.928;12.116;2022-12-18T16:00:41;100290.22;;;-5.48;65.57
18509;BME280;9383;50.928;12.116;2022-12-18T16:03:29;100293.31;;;-5.56;66.38
18509;BME280;9383;50.928;12.116;2022-12-18T16:06:15;100299.03;;;-5.61;66.28
18509;BME280;9383;50.928;12.116;2022-12-18T16:09:06;100302.09;;;-5.69;66.56
18509;BME280;9383;50.928;12.116;2022-12-18T16:12:06;100294.03;;;-5.75;66.83
18509;BME280;9383;50.928;12.116;2022-12-18T16:14:59;100285.06;;;-5.82;67.05
18509;BME280;9383;50.928;12.116;2022-12-18T16:17:48;100287.22;;;-5.89;67.40
18509;BME280;9383;50.928;12.116;2022-12-18T16:20:33;100292.09;;;-5.96;67.82
18509;BME280;9383;50.928;12.116;2022-12-18T16:23:18;100286.66;;;-6.00;67.81
18509;BME280;9383;50.928;12.116;2022-12-18T16:26:05;100277.84;;;-6.05;68.27
18509;BME280;9383;50.928;12.116;2022-12-18T16:29:01;100270.66;;;-6.11;68.47
18509;BME280;9383;50.928;12.116;2022-12-18T16:31:58;100278.03;;;-6.17;68.77
18509;BME280;9383;50.928;12.116;2022-12-18T16:34:44;100275.16;;;-6.24;68.57
18509;BME280;9383;50.928;12.116;2022-12-18T16:37:29;100268.94;;;-6.27;71.28